createdAt,value
2018-08-09T00:01:55.985Z,8.47
2018-08-09T00:04:25.996Z,8.90
2018-08-09T00:06:56.030Z,8.63
2018-08-09T00:09:26.046Z,8.73
2018-08-09T00:11:55.964Z,9.00
2018-08-09T00:14:26.111Z,8.60
2018-08-09T00:16:55.988Z,8.20
2018-08-09T00:19:26.012Z,8.80
2018-08-09T00:21:56.013Z,9.40
2018-08-09T00:24:26.023Z,8.60
2018-08-09T00:26:56.117Z,9.10
2018-08-09T00:29:25.957Z,8.67
2018-08-09T00:31:56.084Z,8.80
2018-08-09T00:34:25.957Z,8.93
2018-08-09T00:36:56.063Z,8.97
2018-08-09T00:39:26.067Z,8.63
2018-08-09T00:41:56.019Z,8.37
2018-08-09T00:44:26.136Z,9.40
2018-08-09T00:46:56.077Z,9.07
2018-08-09T00:49:26.104Z,8.43
2018-08-09T00:51:55.981Z,8.93
2018-08-09T00:54:26.054Z,8.73
2018-08-09T00:56:56.131Z,9.10
2018-08-09T00:59:26.012Z,9.07
2018-08-09T01:01:55.962Z,9.00
2018-08-09T01:04:26.063Z,9.33
2018-08-09T01:06:56.089Z,9.80
2018-08-09T01:09:25.932Z,9.80
2018-08-09T01:11:56.023Z,9.40
2018-08-09T01:14:26.372Z,9.47
2018-08-09T01:16:56.342Z,9.63
2018-08-09T01:19:26.163Z,9.13
2018-08-09T01:21:56.046Z,9.90
2018-08-09T01:24:29.963Z,9.53
2018-08-09T01:27:00.001Z,9.97
2018-08-09T01:29:30.289Z,9.77
2018-08-09T01:32:00.785Z,9.73
2018-08-09T01:34:30.963Z,10.03
2018-08-09T01:37:01.033Z,10.47
2018-08-09T01:39:31.017Z,10.43
2018-08-09T01:42:11.642Z,10.17
2018-08-09T01:44:41.449Z,11.23
2018-08-09T01:47:11.392Z,10.33
2018-08-09T01:49:41.204Z,10.57
2018-08-09T01:52:11.133Z,10.37
2018-08-09T01:54:41.028Z,9.80
2018-08-09T01:57:10.953Z,10.07
2018-08-09T01:59:41.013Z,9.93
2018-08-09T02:02:11.090Z,10.47
2018-08-09T02:04:41.015Z,10.03
2018-08-09T02:07:11.052Z,10.53
2018-08-09T02:09:40.936Z,10.23
2018-08-09T02:12:11.044Z,10.10
2018-08-09T02:14:40.942Z,10.27
2018-08-09T02:17:11.068Z,10.07
2018-08-09T02:19:40.962Z,10.07
2018-08-09T02:22:10.995Z,11.30
2018-08-09T02:24:41.015Z,10.30
2018-08-09T02:27:15.968Z,10.45
2018-08-09T02:29:45.998Z,9.73
2018-08-09T02:32:15.898Z,10.47
2018-08-09T02:34:45.964Z,10.00
2018-08-09T02:37:16.073Z,10.20
2018-08-09T02:39:45.960Z,10.80
2018-08-09T02:42:16.205Z,10.53
2018-08-09T02:44:46.708Z,10.05
2018-08-09T02:47:16.900Z,10.20
2018-08-09T02:49:47.049Z,10.10
2018-08-09T02:52:17.029Z,10.53
2018-08-09T02:54:46.872Z,11.03
2018-08-09T02:57:16.740Z,11.10
2018-08-09T02:59:46.596Z,11.80
2018-08-09T03:02:16.458Z,10.77
2018-08-09T03:04:46.395Z,11.30
2018-08-09T03:07:16.903Z,10.95
2018-08-09T03:09:46.756Z,11.33
2018-08-09T03:12:16.658Z,10.50
2018-08-09T03:14:46.522Z,11.00
2018-08-09T03:17:16.536Z,10.32
2018-08-09T03:19:46.538Z,10.97
2018-08-09T03:22:16.388Z,10.30
2018-08-09T03:24:47.023Z,11.25
2018-08-09T03:27:17.879Z,11.50
2018-08-09T03:29:56.318Z,11.22
2018-08-09T03:32:26.188Z,11.15
2018-08-09T03:34:56.092Z,11.80
2018-08-09T03:37:25.929Z,11.53
2018-08-09T03:39:55.764Z,11.07
2018-08-09T03:42:25.900Z,10.80
2018-08-09T03:44:55.750Z,11.55
2018-08-09T03:47:25.740Z,11.35
2018-08-09T03:49:56.697Z,10.98
2018-08-09T03:52:28.169Z,10.82
2018-08-09T03:54:58.986Z,10.88
2018-08-09T03:57:29.879Z,10.35
2018-08-09T04:00:00.816Z,10.43
2018-08-09T04:02:32.134Z,10.88
2018-08-09T04:05:02.876Z,11.10
2018-08-09T04:07:33.805Z,11.00
2018-08-09T04:10:04.889Z,11.00
2018-08-09T04:12:35.899Z,10.78
2018-08-09T04:15:08.785Z,11.43
2018-08-09T04:17:38.731Z,10.63
2018-08-09T04:20:08.689Z,11.35
2018-08-09T04:22:39.992Z,11.28
2018-08-09T04:25:11.693Z,11.80
2018-08-09T04:27:42.065Z,11.30
2018-08-09T04:30:12.973Z,11.85
2018-08-09T04:32:43.829Z,12.95
2018-08-09T04:35:14.737Z,12.43
2018-08-09T04:37:45.745Z,12.07
2018-08-09T04:40:17.089Z,12.74
2018-08-09T04:42:48.024Z,12.60
2018-08-09T04:45:19.045Z,11.68
2018-08-09T04:47:49.933Z,12.13
2018-08-09T04:50:20.827Z,12.03
2018-08-09T04:52:51.709Z,11.38
2018-08-09T04:55:23.057Z,12.10
2018-08-09T04:57:53.938Z,11.50
2018-08-09T05:00:24.776Z,11.10
2018-08-09T05:02:56.131Z,11.08
2018-08-09T05:05:27.023Z,11.80
2018-08-09T05:07:57.978Z,11.85
2018-08-09T05:10:29.091Z,10.20
2018-08-09T05:12:59.944Z,11.12
2018-08-09T05:15:31.557Z,10.93
2018-08-09T05:18:04.669Z,10.27
2018-08-09T05:20:34.600Z,9.80
2018-08-09T05:23:04.794Z,10.70
2018-08-09T05:25:34.727Z,10.40
2018-08-09T05:28:06.159Z,11.18
2018-08-09T05:30:37.001Z,10.85
2018-08-09T05:33:13.949Z,11.18
2018-08-09T05:35:43.862Z,11.12
2018-08-09T05:38:13.785Z,10.65
2018-08-09T05:40:43.685Z,10.75
2018-08-09T05:43:13.689Z,10.93
2018-08-09T05:45:43.569Z,10.27
2018-08-09T05:48:14.033Z,10.34
2018-08-09T05:50:44.996Z,10.13
2018-08-09T05:53:15.968Z,9.03
2018-08-09T05:55:46.972Z,10.55
2018-08-09T05:58:17.843Z,9.45
2018-08-09T06:00:48.793Z,9.93
2018-08-09T06:03:20.122Z,10.16
2018-08-09T06:05:51.235Z,10.03
2018-08-09T06:08:22.113Z,10.08
2018-08-09T06:10:52.982Z,9.83
2018-08-09T06:13:24.006Z,10.05
2018-08-09T06:15:54.910Z,8.88
2018-08-09T06:18:25.801Z,10.53
2018-08-09T06:20:56.666Z,10.68
2018-08-09T06:23:27.928Z,10.72
2018-08-09T06:25:58.664Z,10.60
2018-08-09T06:28:31.248Z,9.67
2018-08-09T06:31:01.127Z,9.80
2018-08-09T06:33:32.038Z,9.53
2018-08-09T06:36:10.305Z,9.78
2018-08-09T06:38:40.201Z,9.40
2018-08-09T06:41:10.056Z,8.03
2018-08-09T06:43:39.856Z,8.43
2018-08-09T06:46:09.706Z,7.57
2018-08-09T06:48:40.003Z,7.27
2018-08-09T06:51:09.872Z,8.25
2018-08-09T06:53:39.781Z,7.27
2018-08-09T06:56:11.264Z,7.36
2018-08-09T06:58:43.152Z,7.48
2018-08-09T07:01:13.020Z,7.27
2018-08-09T07:03:43.910Z,7.33
2018-08-09T07:06:14.933Z,7.60
2018-08-09T07:08:45.710Z,7.28
2018-08-09T07:11:16.952Z,7.00
2018-08-09T07:13:47.849Z,7.33
2018-08-09T07:16:18.685Z,7.47
2018-08-09T07:18:50.077Z,7.42
2018-08-09T07:21:20.928Z,7.37
2018-08-09T07:23:51.792Z,7.37
2018-08-09T07:26:22.883Z,7.12
2018-08-09T07:28:54.128Z,7.37
2018-08-09T07:31:24.594Z,7.74
2018-08-09T07:33:55.162Z,7.40
2018-08-09T07:36:25.992Z,7.30
2018-08-09T07:38:56.868Z,7.47
2018-08-09T07:41:27.697Z,7.42
2018-08-09T07:43:59.095Z,7.96
2018-08-09T07:46:30.824Z,8.28
2018-08-09T07:49:00.833Z,7.65
2018-08-09T07:51:31.904Z,7.92
2018-08-09T07:54:03.457Z,7.87
2018-08-09T07:56:34.002Z,7.70
2018-08-09T07:59:05.292Z,7.67
2018-08-09T08:01:36.117Z,7.35
2018-08-09T08:04:07.101Z,7.22
2018-08-09T08:06:38.080Z,7.45
2018-08-09T08:09:11.415Z,6.65
2018-08-09T08:11:41.985Z,7.20
2018-08-09T08:14:12.353Z,7.40
2018-08-09T08:16:42.260Z,6.90
2018-08-09T08:19:13.042Z,6.72
2018-08-09T08:21:44.030Z,6.70
2018-08-09T08:24:15.264Z,6.87
2018-08-09T08:26:45.983Z,7.17
2018-08-09T08:29:17.077Z,7.05
2018-08-09T08:31:47.125Z,6.85
2018-08-09T08:34:18.776Z,6.42
2018-08-09T08:36:49.452Z,6.80
2018-08-09T08:39:20.104Z,6.98
2018-08-09T08:41:51.289Z,6.42
2018-08-09T08:44:23.512Z,6.25
2018-08-09T08:46:53.394Z,6.80
2018-08-09T08:49:23.973Z,6.45
2018-08-09T08:52:16.871Z,6.54
2018-08-09T08:54:47.022Z,6.50
2018-08-09T08:57:17.177Z,6.73
2018-08-09T08:59:47.213Z,5.87
2018-08-09T09:02:17.149Z,6.70
2018-08-09T09:04:47.105Z,6.63
2018-08-09T09:07:17.272Z,6.07
2018-08-09T09:09:47.427Z,6.12
2018-08-09T09:12:22.903Z,6.00
2018-08-09T09:14:52.970Z,6.40
2018-08-09T09:17:22.982Z,6.20
2018-08-09T09:19:53.361Z,5.90
2018-08-09T09:22:24.400Z,6.57
2018-08-09T09:24:54.510Z,7.07
2018-08-09T09:27:24.357Z,6.40
2018-08-09T09:29:54.245Z,6.63
2018-08-09T09:32:24.530Z,6.50
2018-08-09T09:34:54.780Z,6.62
2018-08-09T09:37:24.999Z,6.53
2018-08-09T09:39:54.934Z,6.63
2018-08-09T09:42:25.269Z,6.47
2018-08-09T09:44:55.714Z,5.72
2018-08-09T09:47:25.561Z,5.73
2018-08-09T09:49:55.548Z,6.70
2018-08-09T09:52:25.436Z,6.17
2018-08-09T09:54:55.637Z,6.63
2018-08-09T09:57:25.577Z,6.07
2018-08-09T09:59:55.430Z,6.40
2018-08-09T10:02:25.322Z,6.40
2018-08-09T10:04:55.208Z,6.47
2018-08-09T10:07:25.103Z,5.87
2018-08-09T10:09:56.126Z,6.27
2018-08-09T10:12:25.976Z,7.87
2018-08-09T10:14:57.333Z,7.10
2018-08-09T10:17:27.935Z,5.83
2018-08-09T10:19:58.938Z,6.37
2018-08-09T10:22:29.774Z,6.40
2018-08-09T10:25:01.210Z,6.20
2018-08-09T10:27:31.966Z,6.17
2018-08-09T10:30:02.882Z,6.20
2018-08-09T10:32:33.717Z,6.20
2018-08-09T10:35:04.827Z,6.37
2018-08-09T10:37:35.750Z,6.22
2018-08-09T10:40:07.010Z,6.03
2018-08-09T10:42:37.821Z,5.97
2018-08-09T10:45:08.692Z,6.00
2018-08-09T10:47:40.073Z,6.44
2018-08-09T10:50:11.025Z,6.10
2018-08-09T10:52:41.896Z,6.08
2018-08-09T10:55:12.836Z,5.55
2018-08-09T10:57:43.838Z,5.35
2018-08-09T11:00:14.841Z,5.42
2018-08-09T11:02:45.763Z,5.83
2018-08-09T11:05:16.826Z,6.28
2018-08-09T11:07:47.696Z,5.85
2018-08-09T11:10:19.101Z,5.90
2018-08-09T11:12:49.977Z,6.25
2018-08-09T11:15:20.932Z,6.08
2018-08-09T11:17:57.959Z,5.97
2018-08-09T11:20:28.830Z,6.47
2018-08-09T11:22:59.068Z,5.97
2018-08-09T11:25:29.133Z,6.03
2018-08-09T11:27:59.832Z,5.95
2018-08-09T11:30:30.294Z,6.10
2018-08-09T11:33:00.161Z,6.73
2018-08-09T11:35:30.126Z,6.40
2018-08-09T11:38:00.114Z,6.13
2018-08-09T11:40:31.020Z,6.15
2018-08-09T11:43:01.936Z,6.50
2018-08-09T11:45:33.253Z,6.67
2018-08-09T11:48:04.015Z,6.05
2018-08-09T11:50:34.837Z,7.20
2018-08-09T11:53:04.751Z,6.00
2018-08-09T11:55:35.678Z,6.15
2018-08-09T11:58:07.288Z,6.42
2018-08-09T12:02:02.071Z,6.83
2018-08-09T12:04:32.278Z,6.90
2018-08-09T12:07:02.323Z,6.17
2018-08-09T12:09:32.412Z,6.30
2018-08-09T12:12:02.626Z,6.67
2018-08-09T12:14:33.347Z,6.60
2018-08-09T12:17:03.222Z,6.70
2018-08-09T12:19:33.182Z,6.23
2018-08-09T12:22:03.067Z,6.27
2018-08-09T12:24:33.016Z,6.70
2018-08-09T12:27:03.094Z,7.07
2018-08-09T12:29:33.241Z,7.13
2018-08-09T12:32:03.264Z,6.87
2018-08-09T12:34:33.165Z,6.93
2018-08-09T12:37:03.021Z,6.53
2018-08-09T12:39:33.066Z,6.90
2018-08-09T12:42:03.055Z,6.67
2018-08-09T12:44:33.513Z,6.87
2018-08-09T12:47:03.369Z,6.70
2018-08-09T12:49:33.400Z,6.80
2018-08-09T12:52:03.318Z,6.67
2018-08-09T12:54:33.562Z,6.33
2018-08-09T12:57:03.766Z,6.90
2018-08-09T13:13:28.393Z,6.90
2018-08-09T13:15:58.565Z,6.37
2018-08-09T13:18:28.905Z,6.30
2018-08-09T13:20:58.908Z,6.93
2018-08-09T13:23:29.083Z,6.83
2018-08-09T13:25:59.457Z,6.60
2018-08-09T13:28:29.337Z,6.90
2018-08-09T13:30:59.165Z,8.47
2018-08-09T13:33:28.981Z,7.60
2018-08-09T13:35:59.072Z,8.23
2018-08-09T13:38:29.180Z,7.50
2018-08-09T13:40:59.028Z,7.80
2018-08-09T13:43:29.072Z,7.83
2018-08-09T13:45:59.230Z,9.00
2018-08-09T13:48:29.096Z,9.87
2018-08-09T13:50:59.071Z,8.77
2018-08-09T13:53:29.435Z,9.90
2018-08-09T13:55:59.406Z,9.80
2018-08-09T13:58:29.395Z,9.97
2018-08-09T14:00:59.573Z,10.33
2018-08-09T14:03:29.873Z,10.47
2018-08-09T14:06:00.009Z,10.00
2018-08-09T14:08:30.887Z,10.10
2018-08-09T14:11:00.934Z,8.70
2018-08-09T14:13:31.762Z,8.10
2018-08-09T14:16:01.764Z,8.37
2018-08-09T14:18:32.169Z,8.07
2018-08-09T14:21:02.338Z,7.30
2018-08-09T14:23:32.242Z,7.63
2018-08-09T14:26:02.241Z,7.87
2018-08-09T14:28:32.222Z,8.17
2018-08-09T14:31:02.378Z,8.20
2018-08-09T14:33:32.667Z,8.33
2018-08-09T14:36:02.501Z,8.77
2018-08-09T14:38:32.762Z,8.03
2018-08-09T14:41:03.386Z,8.60
2018-08-09T14:43:33.721Z,8.63
2018-08-09T14:46:04.060Z,9.27
2018-08-09T14:48:34.036Z,8.53
2018-08-09T14:51:04.098Z,8.27
2018-08-09T14:53:34.061Z,8.70
2018-08-09T14:56:03.989Z,9.60
2018-08-09T14:58:34.137Z,10.73
2018-08-09T15:01:03.990Z,9.90
2018-08-09T15:03:34.062Z,8.87
2018-08-09T15:06:04.322Z,9.00
2018-08-09T15:08:34.277Z,8.57
2018-08-09T15:11:04.363Z,8.70
2018-08-09T15:13:34.222Z,8.40
2018-08-09T15:16:04.175Z,8.43
2018-08-09T15:18:34.171Z,8.13
2018-08-09T15:21:04.462Z,8.83
2018-08-09T15:23:34.461Z,7.63
2018-08-09T15:26:04.483Z,7.53
2018-08-09T15:28:34.739Z,8.07
2018-08-09T15:31:05.059Z,8.17
2018-08-09T15:33:35.097Z,7.43
2018-08-09T15:36:05.088Z,7.83
2018-08-09T15:38:35.107Z,7.50
2018-08-09T15:41:08.272Z,7.40
2018-08-09T15:43:38.143Z,7.27
2018-08-09T15:46:08.675Z,7.30
2018-08-09T15:48:39.138Z,7.13
2018-08-09T15:51:08.966Z,7.33
2018-08-09T15:53:38.997Z,7.37
2018-08-09T15:56:08.874Z,7.77
2018-08-09T15:58:39.046Z,7.30
2018-08-09T16:01:08.913Z,7.67
2018-08-09T16:03:39.579Z,7.30
2018-08-09T16:06:09.435Z,7.10
2018-08-09T16:08:39.358Z,7.20
2018-08-09T16:11:09.724Z,7.33
2018-08-09T16:13:40.246Z,6.87
2018-08-09T16:16:10.132Z,7.97
2018-08-09T16:18:40.176Z,7.67
2018-08-09T16:21:10.192Z,7.60
2018-08-09T16:23:40.225Z,7.63
2018-08-09T16:26:10.644Z,7.12
2018-08-09T16:28:40.883Z,7.10
2018-08-09T16:31:11.083Z,6.90
2018-08-09T16:33:41.174Z,7.50
2018-08-09T16:36:11.529Z,7.43
2018-08-09T16:38:41.772Z,8.20
2018-08-09T16:41:12.601Z,7.70
2018-08-09T16:43:42.561Z,8.03
2018-08-09T16:46:12.573Z,7.43
2018-08-09T16:48:42.544Z,8.40
2018-08-09T16:51:12.378Z,7.73
2018-08-09T16:53:42.242Z,8.20
2018-08-09T16:56:12.566Z,7.80
2018-08-09T16:58:42.407Z,8.50
2018-08-09T17:01:12.377Z,8.03
2018-08-09T17:03:42.916Z,8.60
2018-08-09T17:06:13.101Z,8.60
2018-08-09T17:08:42.944Z,7.65
2018-08-09T17:11:12.899Z,7.83
2018-08-09T17:13:44.173Z,8.08
2018-08-09T17:16:15.015Z,8.55
2018-08-09T17:18:46.344Z,8.83
2018-08-09T17:21:17.801Z,8.40
2018-08-09T17:23:47.777Z,8.90
2018-08-09T17:26:18.797Z,8.50
2018-08-09T17:28:49.628Z,8.43
2018-08-09T17:31:20.368Z,9.00
2018-08-09T17:33:51.008Z,9.38
2018-08-09T17:36:22.037Z,9.90
2018-08-09T17:38:52.973Z,9.10
2018-08-09T17:41:24.020Z,8.93
2018-08-09T17:44:03.301Z,8.68
2018-08-09T17:46:33.717Z,9.23
2018-08-09T17:49:03.685Z,9.20
2018-08-09T17:51:35.852Z,8.80
2018-08-09T17:54:05.862Z,8.97
2018-08-09T17:56:35.933Z,9.83
2018-08-09T17:59:06.569Z,9.32
2018-08-09T18:01:36.419Z,10.00
2018-08-09T18:04:06.473Z,9.13
2018-08-09T18:06:37.011Z,9.30
2018-08-09T18:09:10.565Z,9.90
2018-08-09T18:11:40.921Z,9.43
2018-08-09T18:14:10.937Z,9.45
2018-08-09T18:16:40.762Z,9.53
2018-08-09T18:19:11.014Z,9.57
2018-08-09T18:21:41.280Z,9.97
2018-08-09T18:24:11.554Z,9.50
2018-08-09T18:26:41.464Z,10.27
2018-08-09T18:29:11.358Z,9.57
2018-08-09T18:31:41.318Z,8.70
2018-08-09T18:34:11.515Z,9.23
2018-08-09T18:36:41.637Z,9.37
2018-08-09T18:39:12.996Z,8.65
2018-08-09T18:41:42.977Z,8.53
2018-08-09T18:44:13.993Z,8.77
2018-08-09T18:46:43.732Z,8.63
2018-08-09T18:49:13.845Z,8.67
2018-08-09T18:51:44.041Z,8.17
2018-08-09T18:57:07.553Z,8.47
2018-08-09T18:59:37.671Z,8.40
2018-08-09T19:02:08.142Z,7.90
2018-08-09T19:04:38.445Z,8.73
2018-08-09T19:07:08.753Z,8.50
2018-08-09T19:09:38.975Z,8.53
2018-08-09T19:12:09.445Z,8.53
2018-08-09T19:14:39.402Z,8.53
2018-08-09T19:17:09.964Z,8.08
2018-08-09T19:19:39.865Z,8.47
2018-08-09T19:22:10.170Z,7.93
2018-08-09T19:24:40.269Z,8.40
2018-08-09T19:27:10.303Z,9.03
2018-08-09T19:29:40.273Z,8.43
2018-08-09T19:32:10.261Z,8.37
2018-08-09T19:34:40.204Z,8.47
2018-08-09T19:37:10.135Z,8.47
2018-08-09T19:39:40.195Z,8.30
2018-08-09T19:42:10.100Z,9.53
2018-08-09T19:44:39.965Z,7.97
2018-08-09T19:47:09.962Z,8.53
2018-08-09T19:49:39.892Z,8.40
2018-08-09T19:52:10.112Z,8.37
2018-08-09T19:54:40.027Z,8.50
2018-08-09T19:57:10.389Z,8.33
2018-08-09T19:59:40.255Z,7.80
2018-08-09T20:02:10.388Z,8.43
2018-08-09T20:04:40.531Z,8.53
2018-08-09T20:07:10.779Z,8.10
2018-08-09T20:09:40.929Z,7.77
2018-08-09T20:12:11.349Z,7.67
2018-08-09T20:14:41.500Z,8.10
2018-08-09T20:17:12.121Z,7.83
2018-08-09T20:19:42.739Z,8.90
2018-08-09T20:22:17.317Z,8.47
2018-08-09T20:24:48.025Z,8.43
2018-08-09T20:27:18.112Z,8.40
2018-08-09T20:29:48.158Z,8.23
2018-08-09T20:32:18.471Z,7.97
2018-08-09T20:34:49.177Z,8.03
2018-08-09T20:37:19.309Z,8.10
2018-08-09T20:39:49.384Z,8.07
2018-08-09T20:42:19.317Z,7.70
2018-08-09T20:44:49.163Z,7.80
2018-08-09T20:47:19.368Z,7.27
2018-08-09T20:49:49.429Z,8.50
2018-08-09T20:52:19.350Z,9.17
2018-08-09T20:54:49.409Z,8.87
2018-08-09T20:57:19.760Z,8.70
2018-08-09T20:59:49.852Z,9.10
2018-08-09T21:02:19.960Z,9.50
2018-08-09T21:04:50.314Z,8.77
2018-08-09T21:07:20.484Z,8.47
2018-08-09T21:09:50.492Z,8.80
2018-08-09T21:12:21.008Z,7.67
2018-08-09T21:14:51.230Z,8.43
2018-08-09T21:17:21.645Z,8.40
2018-08-09T21:19:52.088Z,8.60
2018-08-09T21:22:21.932Z,8.23
2018-08-09T21:24:52.310Z,8.03
2018-08-09T21:27:22.736Z,8.40
2018-08-09T21:29:53.202Z,7.97
2018-08-09T21:32:23.153Z,8.57
2018-08-09T21:34:56.207Z,8.77
2018-08-09T21:37:26.629Z,7.73
2018-08-09T21:39:56.525Z,8.35
2018-08-09T21:42:27.151Z,7.95
2018-08-09T21:44:57.643Z,8.27
2018-08-09T21:47:28.083Z,8.50
2018-08-09T21:49:58.094Z,7.97
2018-08-09T21:52:28.028Z,8.30
2018-08-09T21:54:58.192Z,8.13
2018-08-09T21:57:28.095Z,8.20
2018-08-09T21:59:58.066Z,8.30
2018-08-09T22:02:29.469Z,8.10
2018-08-09T22:05:04.210Z,8.20
2018-08-09T22:07:38.910Z,8.00
2018-08-09T22:10:13.821Z,8.60
2018-08-09T22:12:49.387Z,8.53
2018-08-09T22:15:23.965Z,7.50
2018-08-09T22:17:58.961Z,8.10
2018-08-09T22:20:33.619Z,7.80
2018-08-09T22:23:04.074Z,8.73
2018-08-09T22:25:34.024Z,8.27
2018-08-09T22:28:03.986Z,8.10
2018-08-09T22:30:33.971Z,7.77
2018-08-09T22:33:03.911Z,7.80
2018-08-09T22:35:33.851Z,8.20
2018-08-09T22:38:03.746Z,8.10
2018-08-09T22:40:34.044Z,7.67
2018-08-09T22:43:03.861Z,7.80
2018-08-09T22:45:34.260Z,8.00
2018-08-09T22:48:04.112Z,8.03
2018-08-09T22:50:33.934Z,7.77
2018-08-09T22:53:03.791Z,8.10
2018-08-09T22:55:34.044Z,8.43
2018-08-09T22:58:04.860Z,8.27
2018-08-09T23:00:34.818Z,8.00
2018-08-09T23:03:06.051Z,7.23
2018-08-09T23:05:35.907Z,7.60
2018-08-09T23:08:07.269Z,7.53
2018-08-09T23:10:39.509Z,7.60
2018-08-09T23:13:10.476Z,7.70
2018-08-09T23:15:40.879Z,7.27
2018-08-09T23:18:11.100Z,7.83
2018-08-09T23:20:42.038Z,7.17
2018-08-09T23:23:12.548Z,7.60
2018-08-09T23:25:42.832Z,7.30
2018-08-09T23:28:13.023Z,7.28
2018-08-09T23:30:43.201Z,7.17
2018-08-09T23:33:13.349Z,7.62
2018-08-09T23:35:43.453Z,8.10
2018-08-09T23:38:13.239Z,8.27
2018-08-09T23:40:43.064Z,7.90
2018-08-09T23:43:14.265Z,8.80
2018-08-09T23:45:44.081Z,9.30
2018-08-09T23:48:14.153Z,8.80
2018-08-09T23:50:44.001Z,8.73
2018-08-09T23:53:13.960Z,9.20
2018-08-09T23:55:43.941Z,8.33
2018-08-09T23:58:13.891Z,8.83
